createdAt,value
2018-12-22T00:00:39.705Z,97568.91
2018-12-22T00:03:07.160Z,97570.75
2018-12-22T00:05:34.616Z,97570.50
2018-12-22T00:08:02.023Z,97566.16
2018-12-22T00:10:29.459Z,97569.25
2018-12-22T00:12:56.873Z,97560.55
2018-12-22T00:15:24.272Z,97567.02
2018-12-22T00:17:51.796Z,97566.33
2018-12-22T00:20:19.204Z,97557.87
2018-12-22T00:22:46.595Z,97555.89
2018-12-22T00:25:13.992Z,97553.57
2018-12-22T00:27:41.452Z,97561.28
2018-12-22T00:30:08.868Z,97564.77
2018-12-22T00:32:36.267Z,97561.75
2018-12-22T00:35:04.765Z,97561.72
2018-12-22T00:37:32.173Z,97541.49
2018-12-22T00:39:59.568Z,97563.30
2018-12-22T00:42:26.970Z,97564.77
2018-12-22T00:44:54.452Z,97567.27
2018-12-22T00:47:21.855Z,97566.36
2018-12-22T00:49:49.253Z,97565.33
2018-12-22T00:52:17.636Z,97565.89
2018-12-22T00:54:45.031Z,97571.20
2018-12-22T00:57:12.471Z,97567.27
2018-12-22T00:59:39.873Z,97573.08
2018-12-22T01:02:07.316Z,97579.50
2018-12-22T01:04:34.724Z,97577.63
2018-12-22T01:07:02.121Z,97578.89
2018-12-22T01:09:29.525Z,97580.22
2018-12-22T01:11:56.925Z,97582.70
2018-12-22T01:14:24.415Z,97573.25
2018-12-22T01:16:51.822Z,97575.11
2018-12-22T01:19:19.215Z,97576.57
2018-12-22T01:21:46.609Z,97573.76
2018-12-22T01:24:14.013Z,97579.61
2018-12-22T01:26:41.406Z,97569.73
2018-12-22T01:29:08.868Z,97573.26
2018-12-22T01:31:36.260Z,97563.30
2018-12-22T01:34:03.669Z,97573.34
2018-12-22T01:36:31.069Z,97574.66
2018-12-22T01:38:58.468Z,97576.21
2018-12-22T01:41:25.868Z,97581.27
2018-12-22T01:43:53.260Z,97587.68
2018-12-22T01:46:20.665Z,97586.48
2018-12-22T01:48:48.056Z,97578.77
2018-12-22T01:51:15.460Z,97580.00
2018-12-22T01:53:42.859Z,97583.19
2018-12-22T01:56:10.505Z,97581.27
2018-12-22T01:58:37.900Z,97591.22
2018-12-22T02:01:05.297Z,97585.52
2018-12-22T02:03:32.707Z,97593.17
2018-12-22T02:06:00.096Z,97584.70
2018-12-22T02:08:27.535Z,97584.42
2018-12-22T02:10:55.572Z,97587.13
2018-12-22T02:13:22.960Z,97581.12
2018-12-22T02:15:50.361Z,97574.38
2018-12-22T02:18:17.761Z,97580.84
2018-12-22T02:20:45.168Z,97584.50
2018-12-22T02:23:12.560Z,97581.75
2018-12-22T02:25:39.964Z,97585.37
2018-12-22T02:28:07.361Z,97578.71
2018-12-22T02:30:34.772Z,97582.95
2018-12-22T02:33:02.398Z,97579.89
2018-12-22T02:35:29.799Z,97569.20
2018-12-22T02:37:57.192Z,97563.50
2018-12-22T02:40:24.597Z,97548.31
2018-12-22T02:42:52.000Z,97549.86
2018-12-22T02:45:19.405Z,97558.52
2018-12-22T02:47:46.800Z,97560.83
2018-12-22T02:50:15.021Z,97563.78
2018-12-22T02:52:42.420Z,97565.48
2018-12-22T02:55:09.822Z,97566.17
2018-12-22T02:57:37.313Z,97568.08
2018-12-22T03:00:08.606Z,97576.44
2018-12-22T03:02:36.010Z,97578.70
2018-12-22T03:05:03.604Z,97575.38
2018-12-22T03:07:31.081Z,97568.48
2018-12-22T03:09:58.487Z,97552.08
2018-12-22T03:12:25.877Z,97555.17
2018-12-22T03:14:53.285Z,97557.89
2018-12-22T03:17:20.724Z,97550.66
2018-12-22T03:19:48.169Z,97555.17
2018-12-22T03:22:15.566Z,97573.86
2018-12-22T03:24:42.972Z,97569.94
2018-12-22T03:27:10.474Z,97554.60
2018-12-22T03:29:38.030Z,97549.63
2018-12-22T03:32:05.457Z,97545.88
2018-12-22T03:34:32.982Z,97537.29
2018-12-22T03:37:00.496Z,97530.00
2018-12-22T03:39:27.904Z,97527.62
2018-12-22T03:41:55.385Z,97534.98
2018-12-22T03:44:22.777Z,97532.54
2018-12-22T03:46:50.197Z,97535.60
2018-12-22T03:49:17.572Z,97533.44
2018-12-22T03:51:45.012Z,97531.32
2018-12-22T03:54:12.416Z,97533.66
2018-12-22T03:56:39.823Z,97534.86
2018-12-22T03:59:07.213Z,97526.25
2018-12-22T04:01:34.615Z,97533.70
2018-12-22T04:04:02.002Z,97523.64
2018-12-22T04:06:29.411Z,97534.38
2018-12-22T04:08:56.890Z,97523.95
2018-12-22T04:11:24.297Z,97526.31
2018-12-22T04:13:51.773Z,97533.69
2018-12-22T04:16:19.172Z,97528.17
2018-12-22T04:18:46.565Z,97518.25
2018-12-22T04:21:13.980Z,97520.67
2018-12-22T04:23:41.453Z,97514.41
2018-12-22T04:26:08.850Z,97515.16
2018-12-22T04:28:36.249Z,97522.27
2018-12-22T04:31:03.705Z,97522.48
2018-12-22T04:33:31.098Z,97526.16
2018-12-22T04:35:58.500Z,97526.97
2018-12-22T04:38:25.978Z,97520.98
2018-12-22T04:40:53.380Z,97516.96
2018-12-22T04:43:20.780Z,97516.02
2018-12-22T04:45:48.172Z,97519.73
2018-12-22T04:48:15.564Z,97498.12
2018-12-22T04:50:42.969Z,97517.69
2018-12-22T04:53:10.376Z,97503.68
2018-12-22T04:55:37.782Z,97514.63
2018-12-22T04:58:05.224Z,97509.45
2018-12-22T05:00:32.683Z,97518.30
2018-12-22T05:03:00.064Z,97504.38
2018-12-22T05:05:27.477Z,97509.64
2018-12-22T05:07:54.864Z,97503.77
2018-12-22T05:10:22.269Z,97517.26
2018-12-22T05:12:49.746Z,97522.66
2018-12-22T05:15:17.149Z,97515.06
2018-12-22T05:17:44.540Z,97529.42
2018-12-22T05:20:11.941Z,97527.09
2018-12-22T05:22:39.343Z,97545.45
2018-12-22T05:25:06.838Z,97547.44
2018-12-22T05:27:34.238Z,97552.89
2018-12-22T05:30:01.639Z,97543.61
2018-12-22T05:32:29.044Z,97541.98
2018-12-22T05:34:56.442Z,97546.72
2018-12-22T05:37:23.888Z,97559.83
2018-12-22T05:39:51.280Z,97566.80
2018-12-22T05:42:18.680Z,97567.41
2018-12-22T05:44:46.080Z,97576.14
2018-12-22T05:47:13.481Z,97574.76
2018-12-22T05:49:40.885Z,97579.02
2018-12-22T05:52:08.290Z,97578.66
2018-12-22T05:54:35.685Z,97575.42
2018-12-22T05:57:03.076Z,97600.27
2018-12-22T05:59:30.488Z,97610.38
2018-12-22T06:01:57.893Z,97599.42
2018-12-22T06:04:25.293Z,97606.92
2018-12-22T06:06:52.688Z,97608.36
2018-12-22T06:09:20.146Z,97613.70
2018-12-22T06:11:47.542Z,97632.77
2018-12-22T06:14:15.128Z,97633.38
2018-12-22T06:16:42.532Z,97629.70
2018-12-22T06:19:09.924Z,97635.92
2018-12-22T06:21:37.331Z,97637.91
2018-12-22T06:24:04.769Z,97655.06
2018-12-22T06:26:32.172Z,97657.16
2018-12-22T06:28:59.564Z,97662.50
2018-12-22T06:31:26.952Z,97652.78
2018-12-22T06:33:54.352Z,97649.69
2018-12-22T06:36:21.951Z,97655.06
2018-12-22T06:38:49.353Z,97667.89
2018-12-22T06:41:16.749Z,97674.44
2018-12-22T06:43:44.153Z,97675.48
2018-12-22T06:46:11.563Z,97676.02
2018-12-22T06:48:39.037Z,97674.97
2018-12-22T06:51:06.446Z,97681.54
2018-12-22T06:53:33.831Z,97693.38
2018-12-22T06:56:01.245Z,97695.66
2018-12-22T06:58:28.689Z,97703.55
2018-12-22T07:00:56.080Z,97715.06
2018-12-22T07:03:23.487Z,97711.82
2018-12-22T07:05:50.921Z,97712.87
2018-12-22T07:08:18.416Z,97694.66
2018-12-22T07:10:45.810Z,97702.73
2018-12-22T07:13:13.208Z,97702.55
2018-12-22T07:15:40.603Z,97723.02
2018-12-22T07:18:08.000Z,97713.73
2018-12-22T07:20:35.396Z,97720.55
2018-12-22T07:23:02.793Z,97738.84
2018-12-22T07:25:30.200Z,97738.00
2018-12-22T07:27:57.601Z,97750.50
2018-12-22T07:30:26.370Z,97761.72
2018-12-22T07:32:57.074Z,97760.65
2018-12-22T07:35:23.600Z,97766.77
2018-12-22T07:37:51.025Z,97768.47
2018-12-22T07:40:18.431Z,97774.41
2018-12-22T07:42:45.821Z,97770.50
2018-12-22T07:45:13.269Z,97781.20
2018-12-22T07:47:40.712Z,97783.14
2018-12-22T07:50:08.161Z,97790.29
2018-12-22T07:52:35.553Z,97800.07
2018-12-22T07:55:02.984Z,97808.00
2018-12-22T07:57:30.388Z,97829.31
2018-12-22T07:59:57.781Z,97829.81
2018-12-22T08:02:25.175Z,97824.54
2018-12-22T08:04:52.573Z,97825.09
2018-12-22T08:07:20.018Z,97815.62
2018-12-22T08:09:47.408Z,97820.83
2018-12-22T08:12:14.851Z,97821.55
2018-12-22T08:14:42.380Z,97822.77
2018-12-22T08:17:09.824Z,97822.37
2018-12-22T08:19:37.257Z,97832.39
2018-12-22T08:22:04.648Z,97826.42
2018-12-22T08:24:37.087Z,97835.26
2018-12-22T08:27:04.528Z,97833.01
2018-12-22T08:29:31.976Z,97825.94
2018-12-22T08:31:59.384Z,97829.42
2018-12-22T08:34:26.780Z,97836.36
2018-12-22T08:36:54.503Z,97835.39
2018-12-22T08:39:22.130Z,97822.58
2018-12-22T08:41:49.520Z,97830.52
2018-12-22T08:44:17.001Z,97833.91
2018-12-22T08:46:44.385Z,97863.12
2018-12-22T08:49:11.781Z,97854.93
2018-12-22T08:51:39.184Z,97868.00
2018-12-22T08:54:06.623Z,97884.55
2018-12-22T08:56:34.021Z,97880.64
2018-12-22T08:59:01.416Z,97887.45
2018-12-22T09:01:28.812Z,97902.06
2018-12-22T09:03:56.224Z,97900.58
2018-12-22T09:06:23.624Z,97902.78
2018-12-22T09:08:51.073Z,97906.73
2018-12-22T09:11:18.472Z,97914.05
2018-12-22T09:13:45.904Z,97917.23
2018-12-22T09:16:13.311Z,97919.00
2018-12-22T09:18:40.711Z,97929.39
2018-12-22T09:21:08.112Z,97937.27
2018-12-22T09:23:36.340Z,97946.83
2018-12-22T09:26:03.869Z,97956.23
2018-12-22T09:28:31.274Z,97965.55
2018-12-22T09:31:00.843Z,97959.52
2018-12-22T09:33:28.065Z,97964.80
2018-12-22T09:35:55.465Z,97966.34
2018-12-22T09:38:22.868Z,97970.80
2018-12-22T09:40:50.340Z,97972.02
2018-12-22T09:43:17.752Z,97977.27
2018-12-22T09:45:45.157Z,97997.88
2018-12-22T09:48:12.552Z,97994.13
2018-12-22T09:50:39.981Z,98003.22
2018-12-22T09:53:07.360Z,98003.72
2018-12-22T09:55:34.771Z,97998.53
2018-12-22T09:58:02.157Z,98008.44
2018-12-22T10:00:29.568Z,98012.58
2018-12-22T10:02:56.961Z,98016.72
2018-12-22T10:05:24.496Z,98016.16
2018-12-22T10:07:51.884Z,98027.97
2018-12-22T10:10:19.292Z,98020.95
2018-12-22T10:12:46.731Z,98018.59
2018-12-22T10:15:14.216Z,98027.61
2018-12-22T10:17:41.656Z,98024.84
2018-12-22T10:20:09.097Z,98037.45
2018-12-22T10:22:36.636Z,98018.28
2018-12-22T10:25:06.143Z,98029.40
2018-12-22T10:27:33.632Z,98030.39
2018-12-22T10:30:01.021Z,98023.81
2018-12-22T10:32:28.542Z,98032.25
2018-12-22T10:34:56.012Z,98033.88
2018-12-22T10:37:23.412Z,98026.56
2018-12-22T10:39:50.836Z,98035.81
2018-12-22T10:42:18.279Z,98031.01
2018-12-22T10:44:45.688Z,98026.80
2018-12-22T10:47:13.104Z,98033.67
2018-12-22T10:49:40.496Z,98026.69
2018-12-22T10:52:07.950Z,98030.98
2018-12-22T10:54:35.425Z,98029.45
2018-12-22T10:57:04.123Z,98028.33
2018-12-22T10:59:31.766Z,98017.28
2018-12-22T11:01:59.165Z,98024.19
2018-12-22T11:04:26.563Z,98023.03
2018-12-22T11:06:53.967Z,98022.14
2018-12-22T11:09:21.357Z,98031.24
2018-12-22T11:11:48.756Z,98032.55
2018-12-22T11:14:16.185Z,98021.40
2018-12-22T11:16:43.905Z,98028.89
2018-12-22T11:19:11.272Z,98029.68
2018-12-22T11:21:38.720Z,98034.80
2018-12-22T11:24:06.287Z,98028.64
2018-12-22T11:26:33.684Z,98031.21
2018-12-22T11:29:01.088Z,98028.45
2018-12-22T11:31:34.983Z,98038.50
2018-12-22T11:33:57.864Z,98040.52
2018-12-22T11:36:25.281Z,98047.34
2018-12-22T11:38:52.672Z,98082.00
2018-12-22T11:41:20.080Z,98077.14
2018-12-22T11:43:47.639Z,98083.67
2018-12-22T11:46:15.030Z,98093.81
2018-12-22T11:48:43.612Z,98088.48
2018-12-22T11:51:11.009Z,98085.28
2018-12-22T11:53:38.426Z,98084.92
2018-12-22T11:56:05.927Z,98068.17
2018-12-22T11:58:33.329Z,98066.30
2018-12-22T12:01:00.772Z,98065.17
2018-12-22T12:03:28.173Z,98073.79
2018-12-22T12:08:32.788Z,98076.45
2018-12-22T12:11:00.554Z,98077.30
2018-12-22T12:13:28.070Z,98077.69
2018-12-22T12:15:55.455Z,98076.04
2018-12-22T12:18:46.312Z,98092.52
2018-12-22T12:21:13.700Z,98080.00
2018-12-22T12:23:41.187Z,98086.20
2018-12-22T12:26:09.496Z,98079.59
2018-12-22T12:28:36.937Z,98097.84
2018-12-22T12:31:04.484Z,98103.84
2018-12-22T12:33:31.932Z,98096.33
2018-12-22T12:35:59.328Z,98090.91
2018-12-22T12:38:26.729Z,98102.96
2018-12-22T12:40:54.130Z,98113.23
2018-12-22T12:43:21.538Z,98109.31
2018-12-22T12:45:48.920Z,98111.11
2018-12-22T12:48:16.721Z,98109.91
2018-12-22T12:50:44.705Z,98106.84
2018-12-22T12:53:12.109Z,98105.99
2018-12-22T12:55:39.509Z,98107.19
2018-12-22T12:58:12.467Z,98100.97
2018-12-22T13:00:40.150Z,98109.61
2018-12-22T13:03:08.466Z,98099.08
2018-12-22T13:05:36.032Z,98107.58
2018-12-22T13:08:03.420Z,98110.50
2018-12-22T13:10:30.813Z,98111.43
2018-12-22T13:16:01.008Z,98103.71
2018-12-22T13:18:28.416Z,98109.72
2018-12-22T13:20:55.817Z,98113.30
2018-12-22T13:23:23.217Z,98100.33
2018-12-22T13:25:50.633Z,98112.09
2018-12-22T13:28:18.089Z,98103.42
2018-12-22T13:30:45.477Z,98103.81
2018-12-22T13:33:12.949Z,98111.17
2018-12-22T13:35:40.369Z,98110.05
2018-12-22T13:38:07.760Z,98113.03
2018-12-22T13:40:35.168Z,98120.00
2018-12-22T13:43:02.573Z,98118.62
2018-12-22T13:45:29.973Z,98122.13
2018-12-22T13:47:57.548Z,98127.81
2018-12-22T13:50:25.201Z,98136.48
2018-12-22T13:52:52.749Z,98125.13
2018-12-22T13:55:20.154Z,98142.03
2018-12-22T13:57:47.549Z,98142.70
2018-12-22T14:00:19.221Z,98154.56
2018-12-22T14:02:46.624Z,98156.83
2018-12-22T14:05:21.352Z,98150.16
2018-12-22T14:07:48.735Z,98162.01
2018-12-22T14:10:16.320Z,98148.94
2018-12-22T14:12:43.780Z,98161.02
2018-12-22T14:15:15.288Z,98164.83
2018-12-22T14:17:45.891Z,98163.08
2018-12-22T14:20:13.397Z,98171.84
2018-12-22T14:22:40.845Z,98159.33
2018-12-22T14:25:12.276Z,98183.80
2018-12-22T14:27:39.712Z,98179.00
2018-12-22T14:30:11.505Z,98187.13
2018-12-22T14:32:38.954Z,98177.30
2018-12-22T14:35:11.559Z,98165.08
2018-12-22T14:37:39.008Z,98172.82
2018-12-22T14:40:11.116Z,98166.63
2018-12-22T14:42:38.802Z,98168.12
2018-12-22T14:45:12.305Z,98172.91
2018-12-22T14:47:39.752Z,98174.11
2018-12-22T14:50:10.712Z,98159.23
2018-12-22T14:52:38.118Z,98177.20
2018-12-22T14:55:09.171Z,98175.38
2018-12-22T14:57:40.240Z,98186.97
2018-12-22T15:00:14.245Z,98197.11
2018-12-22T15:02:41.649Z,98189.94
2018-12-22T15:05:09.099Z,98184.80
2018-12-22T15:07:36.480Z,98178.80
2018-12-22T15:10:07.085Z,98188.61
2018-12-22T15:12:34.480Z,98200.75
2018-12-22T15:15:01.914Z,98208.22
2018-12-22T15:17:29.361Z,98208.22
2018-12-22T15:19:56.756Z,98219.84
2018-12-22T15:22:24.156Z,98237.73
2018-12-22T15:24:51.564Z,98224.01
2018-12-22T15:27:19.148Z,98235.08
2018-12-22T15:29:46.632Z,98238.94
2018-12-22T15:32:14.033Z,98239.06
2018-12-22T15:34:41.428Z,98248.81
2018-12-22T15:37:08.823Z,98258.34
2018-12-22T15:39:36.416Z,98255.73
2018-12-22T15:42:03.900Z,98265.99
2018-12-22T15:44:31.296Z,98268.23
2018-12-22T15:46:58.710Z,98272.41
2018-12-22T15:49:26.100Z,98273.78
2018-12-22T15:51:53.500Z,98278.73
2018-12-22T15:54:20.905Z,98290.41
2018-12-22T15:56:48.300Z,98280.66
2018-12-22T15:59:15.700Z,98279.09
2018-12-22T16:01:43.108Z,98277.00
2018-12-22T16:04:10.502Z,98280.73
2018-12-22T16:06:37.901Z,98282.81
2018-12-22T16:09:05.952Z,98283.67
2018-12-22T16:11:33.348Z,98292.95
2018-12-22T16:14:00.748Z,98288.11
2018-12-22T16:16:28.157Z,98311.23
2018-12-22T16:18:55.554Z,98312.30
2018-12-22T16:21:23.024Z,98313.47
2018-12-22T16:23:50.412Z,98315.11
2018-12-22T16:26:17.806Z,98303.23
2018-12-22T16:28:45.261Z,98328.58
2018-12-22T16:31:12.677Z,98331.39
2018-12-22T16:33:40.074Z,98340.95
2018-12-22T16:36:07.464Z,98332.09
2018-12-22T16:38:34.868Z,98346.94
2018-12-22T16:41:02.364Z,98347.34
2018-12-22T16:43:29.761Z,98335.28
2018-12-22T16:45:57.164Z,98339.86
2018-12-22T16:48:24.721Z,98328.61
2018-12-22T16:50:52.098Z,98326.72
2018-12-22T16:53:19.610Z,98329.95
2018-12-22T16:55:47.094Z,98313.46
2018-12-22T16:58:20.038Z,98314.42
2018-12-22T17:00:59.208Z,98328.34
2018-12-22T17:03:26.988Z,98320.47
2018-12-22T17:05:54.990Z,98321.60
2018-12-22T17:08:22.380Z,98328.73
2018-12-22T17:10:49.873Z,98327.42
2018-12-22T17:13:17.445Z,98327.48
2018-12-22T17:15:45.609Z,98328.21
2018-12-22T17:18:13.010Z,98337.61
2018-12-22T17:20:40.408Z,98354.49
2018-12-22T17:23:18.376Z,98358.77
2018-12-22T17:25:49.485Z,98353.91
2018-12-22T17:28:16.876Z,98364.41
2018-12-22T17:30:44.271Z,98367.85
2018-12-22T17:33:18.858Z,98371.56
2018-12-22T17:35:41.196Z,98372.05
2018-12-22T17:38:08.596Z,98381.65
2018-12-22T17:40:36.065Z,98379.69
2018-12-22T17:43:03.512Z,98390.78
2018-12-22T17:45:31.913Z,98383.08
2018-12-22T17:47:59.500Z,98379.66
2018-12-22T17:50:26.901Z,98376.31
2018-12-22T17:52:54.299Z,98368.34
2018-12-22T17:55:21.773Z,98368.00
2018-12-22T17:57:49.168Z,98372.42
2018-12-22T18:00:16.558Z,98370.30
2018-12-22T18:02:46.471Z,98378.09
2018-12-22T18:05:13.860Z,98385.80
2018-12-22T18:07:41.308Z,98388.34
2018-12-22T18:10:11.204Z,98384.77
2018-12-22T18:12:38.591Z,98387.41
2018-12-22T18:15:15.036Z,98387.05
2018-12-22T18:17:42.480Z,98388.97
2018-12-22T18:20:10.117Z,98384.56
2018-12-22T18:22:37.573Z,98382.06
2018-12-22T18:25:10.076Z,98379.31
2018-12-22T18:27:37.486Z,98387.56
2018-12-22T18:30:08.780Z,98384.84
2018-12-22T18:32:36.173Z,98392.09
2018-12-22T18:35:04.064Z,98398.25
2018-12-22T18:37:31.488Z,98397.69
2018-12-22T18:39:58.885Z,98392.61
2018-12-22T18:42:26.328Z,98397.17
2018-12-22T18:44:53.742Z,98395.24
2018-12-22T18:47:21.190Z,98405.11
2018-12-22T18:49:48.589Z,98403.73
2018-12-22T18:52:15.993Z,98399.95
2018-12-22T18:54:43.391Z,98406.82
2018-12-22T18:57:10.786Z,98409.23
2018-12-22T18:59:38.276Z,98406.50
2018-12-22T19:02:05.732Z,98401.45
2018-12-22T19:04:33.176Z,98401.76
2018-12-22T19:07:00.584Z,98411.94
2018-12-22T19:09:28.025Z,98411.27
2018-12-22T19:11:55.420Z,98406.73
2018-12-22T19:14:22.876Z,98409.25
2018-12-22T19:16:50.287Z,98411.73
2018-12-22T19:19:17.724Z,98414.07
2018-12-22T19:21:45.119Z,98411.52
2018-12-22T19:24:12.528Z,98425.34
2018-12-22T19:26:39.926Z,98427.17
2018-12-22T19:29:07.313Z,98420.67
2018-12-22T19:31:41.728Z,98435.42
2018-12-22T19:34:04.157Z,98434.59
2018-12-22T19:36:31.548Z,98436.14
2018-12-22T19:38:58.958Z,98436.94
2018-12-22T19:41:26.352Z,98440.99
2018-12-22T19:43:53.745Z,98444.19
2018-12-22T19:46:21.149Z,98444.26
2018-12-22T19:48:48.592Z,98445.47
2018-12-22T19:51:16.000Z,98440.36
2018-12-22T19:53:43.396Z,98443.26
2018-12-22T19:56:10.787Z,98440.50
2018-12-22T19:58:38.184Z,98440.17
2018-12-22T20:01:05.588Z,98447.72
2018-12-22T20:03:33.002Z,98449.13
2018-12-22T20:06:00.413Z,98457.42
2018-12-22T20:08:27.805Z,98457.15
2018-12-22T20:10:55.193Z,98458.77
2018-12-22T20:13:22.605Z,98465.27
2018-12-22T20:15:49.990Z,98454.64
2018-12-22T20:18:17.384Z,98456.63
2018-12-22T20:20:44.796Z,98461.84
2018-12-22T20:23:12.213Z,98473.11
2018-12-22T20:25:39.600Z,98466.67
2018-12-22T20:28:07.005Z,98462.69
2018-12-22T20:30:34.404Z,98465.27
2018-12-22T20:33:01.796Z,98463.86
2018-12-22T20:35:29.200Z,98463.69
2018-12-22T20:37:56.592Z,98468.16
2018-12-22T20:40:23.989Z,98471.81
2018-12-22T20:42:51.400Z,98471.56
2018-12-22T20:45:18.801Z,98480.10
2018-12-22T20:47:46.193Z,98483.47
2018-12-22T20:50:13.652Z,98459.80
2018-12-22T20:52:41.049Z,98468.92
2018-12-22T20:55:08.484Z,98472.84
2018-12-22T20:57:35.891Z,98471.45
2018-12-22T21:00:05.008Z,98473.48
2018-12-22T21:02:32.447Z,98477.53
2018-12-22T21:04:59.867Z,98483.88
2018-12-22T21:07:27.301Z,98479.70
2018-12-22T21:09:54.693Z,98484.98
2018-12-22T21:12:22.096Z,98487.95
2018-12-22T21:14:49.553Z,98490.36
2018-12-22T21:17:16.949Z,98491.03
2018-12-22T21:19:44.376Z,98485.99
2018-12-22T21:22:11.765Z,98497.73
2018-12-22T21:24:39.176Z,98499.53
2018-12-22T21:27:06.584Z,98499.75
2018-12-22T21:29:34.033Z,98514.96
2018-12-22T21:32:01.435Z,98522.17
2018-12-22T21:34:28.836Z,98529.69
2018-12-22T21:36:56.228Z,98528.33
2018-12-22T21:39:23.636Z,98522.78
2018-12-22T21:41:51.120Z,98527.68
2018-12-22T21:44:18.597Z,98525.03
2018-12-22T21:46:46.001Z,98528.09
2018-12-22T21:49:13.389Z,98524.14
2018-12-22T21:51:40.798Z,98529.84
2018-12-22T21:54:08.205Z,98529.44
2018-12-22T21:56:35.643Z,98529.06
2018-12-22T21:59:03.044Z,98536.59
2018-12-22T22:01:30.454Z,98535.24
2018-12-22T22:03:57.848Z,98534.90
2018-12-22T22:06:25.237Z,98524.62
2018-12-22T22:08:52.649Z,98532.33
2018-12-22T22:11:20.092Z,98532.36
2018-12-22T22:13:47.614Z,98528.75
2018-12-22T22:16:15.096Z,98522.31
2018-12-22T22:18:42.483Z,98524.20
2018-12-22T22:21:09.884Z,98526.02
2018-12-22T22:23:37.286Z,98523.16
2018-12-22T22:26:04.767Z,98531.73
2018-12-22T22:28:32.172Z,98530.42
2018-12-22T22:30:59.579Z,98537.58
2018-12-22T22:33:26.985Z,98542.01
2018-12-22T22:35:54.375Z,98549.56
2018-12-22T22:38:21.776Z,98547.12
2018-12-22T22:40:49.173Z,98548.34
2018-12-22T22:43:16.564Z,98552.86
2018-12-22T22:45:43.972Z,98553.20
2018-12-22T22:48:11.361Z,98552.41
2018-12-22T22:50:38.756Z,98549.90
2018-12-22T22:53:06.169Z,98557.78
2018-12-22T22:55:33.567Z,98558.18
2018-12-22T22:58:00.959Z,98557.08
2018-12-22T23:00:30.365Z,98561.63
2018-12-22T23:02:57.761Z,98564.05
2018-12-22T23:05:25.205Z,98560.31
2018-12-22T23:07:52.663Z,98564.66
2018-12-22T23:10:20.052Z,98562.67
2018-12-22T23:12:47.448Z,98562.42
2018-12-22T23:15:15.619Z,98574.06
2018-12-22T23:17:43.450Z,98571.67
2018-12-22T23:20:10.836Z,98565.54
2018-12-22T23:22:38.255Z,98574.64
2018-12-22T23:25:05.902Z,98584.72
2018-12-22T23:27:33.292Z,98587.23
2018-12-22T23:30:00.702Z,98585.37
2018-12-22T23:32:28.136Z,98596.76
2018-12-22T23:35:02.790Z,98597.82
2018-12-22T23:37:24.937Z,98602.37
2018-12-22T23:39:52.336Z,98603.33
2018-12-22T23:42:19.736Z,98601.67
2018-12-22T23:44:47.136Z,98593.89
2018-12-22T23:47:14.528Z,98595.05
2018-12-22T23:49:41.933Z,98599.17
2018-12-22T23:52:09.329Z,98604.09
2018-12-22T23:54:36.728Z,98603.66
2018-12-22T23:57:04.125Z,98602.14
2018-12-22T23:59:31.536Z,98593.68
